Hyderabad, Pakistan
Current Conditions -  °F | °C
As of 12:55 AM on Sunday 26 Oct 2014 (Local Time) from OPNH Reporting Station
Haze Haze  
Wind Chill: 75°   Ceiling: Unl
Heat Index: 75°   Visibility: 3mi
Dew Point: 59°   Wind: 0mph
Humidity: 57%   Direction: NA
Pressure: 29.88"   Gusts: NA
Location:  25.38°N, 68.37°E
Report Text: OPNH 251955Z 00000KT 5000 HZ NSC 24/15 Q1012
Loading
Personal Weather Stations






























Interactive Weather Map New forecast layout! Learn more

10-Day Weather Forecast

Advertisements
Track Severe Weather on mobile